메인 페이지
METAR-TAF:

METAR-TAF

공항 :

니노이 아키노 국제공항

마닐라, 필리핀

위도: 14-31N, 경도: 121-00E, 고도: 14m

현재 날씨관측

예보는 11분 전, 03:00시(UTC)에 발표되었습니다.
9kt동북동풍과 남동풍을 오가는
온도 35°C
습도 50%
기압 1009 hPa
시정: 9000m
고도 2300ft 상공 구름 조금, 타워링 적운.
고도 2500ft 상공 구름 조금
고도 30000ft 상공 구름 보통

METAR: RPLL 210300Z 09009KT 060V130 9000 FEW023TCU FEW025 SCT300 35/23 Q1009 NOSIG RMK A2980 TCU N

시각: 11:11 (03:11 UTC)

예보

예보는 4 시간 11분 전, 23:00시(UTC)에 발표되었습니다.
예보 대상 시간: 21일 00시부터 22일 06시까지 (UTC)
동남동6kt
시정 10km 이상
고도 2500ft 상공 구름 조금
고도 30000ft 상공 구름 보통
일시적
21일 00시부터 21일 06시까지 (UTC)
동남동10kt
고도 2300ft 상공 구름 조금
고도 10000ft 상공 구름 보통
일시적
21일 06시부터 21일 12시까지 (UTC)
남동12kt
고도 2200ft 상공 구름 조금, 적란운.
고도 2300ft 상공 구름 조금
고도 9000ft 상공 구름 많음

TAF: RPLL 202300Z 2100/2206 12006KT 9999 FEW025 SCT300 TX35/2106Z TN28/2122Z TEMPO 2100/2106 11010KT FEW023 SCT100 TEMPO 2106/2112 13012KT FEW022CB FEW023 BKN090

4,000개 이상의 공항 관측 자료 및 예보 (METAR 및 TAF 보고).

지도상에서 검색 가능한 기상관측소가 노란 점과 빨간 점으로 표시되어 있습니다.

기상관측소 명을 보려면 표시 위로 마우스를 이동하세요.

날씨 관측과 예보를 보려면 클릭하세요.

지도 변경 : 확대하려면 엑스 표시가 있는 녹색 버튼, 축소하려면 빼기 표시가 있는 녹색 버튼, 다음 페이지의 지도를 보려면 녹색 화살표를 클릭하세요.


METAR-TAF: